Time;durP1;ratioP1;P1;durP2;ratioP2;P2;SDS_P1;SDS_P2;PMS_P1;PMS_P2;Temp;Humidity;BMP_temperature;BMP_pressure;BME280_temperature;BME280_humidity;BME280_pressure;Samples;Min_cycle;Max_cycle;Signal;HPM_P1;HPM_P2
2022/03/21 00:01:58;;;;;;;15.35;13.27;;;5.50;79.90;;;;;;5042581;28;20029;-75
2022/03/21 00:04:23;;;;;;;15.85;13.38;;;5.50;79.50;;;;;;5046890;28;20387;-75
2022/03/21 00:06:49;;;;;;;17.20;13.43;;;5.50;80.00;;;;;;5042687;28;20029;-74
2022/03/21 00:09:15;;;;;;;18.60;13.40;;;5.50;80.70;;;;;;5039671;28;20045;-75
2022/03/21 00:11:40;;;;;;;16.08;13.82;;;5.40;81.20;;;;;;5043949;28;20025;-75
2022/03/21 00:14:06;;;;;;;16.00;14.25;;;5.00;83.20;;;;;;5048754;28;20021;-74
2022/03/21 00:16:32;;;;;;;18.25;14.35;;;4.90;84.10;;;;;;5042344;28;20032;-75
2022/03/21 00:18:58;;;;;;;15.77;13.43;;;4.60;85.80;;;;;;5046636;28;20367;-75
2022/03/21 00:21:23;;;;;;;14.98;12.93;;;4.40;86.40;;;;;;5042134;28;20043;-75
2022/03/21 00:23:49;;;;;;;16.67;13.73;;;4.60;85.20;;;;;;5035508;28;20514;-74
2022/03/21 00:26:15;;;;;;;17.42;14.70;;;4.50;85.70;;;;;;5039981;28;20442;-74
2022/03/21 00:28:42;;;;;;;18.30;13.90;;;4.40;85.90;;;;;;5038120;28;20084;-74
2022/03/21 00:31:07;;;;;;;16.05;14.20;;;4.50;86.10;;;;;;5052532;28;20057;-75
2022/03/21 00:33:33;;;;;;;19.00;17.00;;;4.50;86.10;;;;;;5038122;28;20099;-74
2022/03/21 00:35:59;;;;;;;18.52;15.18;;;4.40;86.60;;;;;;5043736;28;20479;-75
2022/03/21 00:38:26;;;;;;;15.43;12.38;;;4.30;87.30;;;;;;5032719;28;20029;-75
2022/03/21 00:40:52;;;;;;;17.38;14.00;;;4.30;86.40;;;;;;5041353;28;20371;-74
2022/03/21 00:43:23;;;;;;;15.80;13.88;;;4.30;87.50;;;;;;5039173;28;20147;-75
2022/03/21 00:45:54;;;;;;;17.40;13.63;;;4.10;88.40;;;;;;5043003;28;20029;-76
2022/03/21 00:48:25;;;;;;;15.25;13.18;;;3.90;88.80;;;;;;5044531;28;20051;-75
2022/03/21 00:50:52;;;;;;;15.10;13.05;;;3.80;88.40;;;;;;5041953;28;20494;-76
2022/03/21 00:53:18;;;;;;;15.25;12.95;;;3.90;88.40;;;;;;5037795;28;20025;-76
2022/03/21 00:55:45;;;;;;;15.02;12.93;;;4.10;86.60;;;;;;5041164;28;20021;-73
2022/03/21 00:58:11;;;;;;;14.63;13.13;;;4.40;86.20;;;;;;5032364;28;20017;-73
2022/03/21 01:00:36;;;;;;;16.80;13.88;;;4.30;86.40;;;;;;5043148;28;20059;-74
2022/03/21 01:03:02;;;;;;;14.75;13.15;;;4.10;88.10;;;;;;5038742;28;20109;-74
2022/03/21 01:05:29;;;;;;;17.02;13.32;;;4.10;87.90;;;;;;5041102;28;20029;-74
2022/03/21 01:07:55;;;;;;;14.80;12.45;;;3.80;89.70;;;;;;5044179;28;20022;-73
2022/03/21 01:10:22;;;;;;;16.10;12.98;;;3.60;89.90;;;;;;5031918;28;20028;-74
2022/03/21 01:12:49;;;;;;;17.02;13.65;;;3.70;90.00;;;;;;5036658;28;20040;-73
2022/03/21 01:15:16;;;;;;;16.80;13.60;;;3.60;90.10;;;;;;5052190;28;20029;-75
2022/03/21 01:17:43;;;;;;;15.77;13.63;;;3.40;90.60;;;;;;5046453;28;20136;-75
2022/03/21 01:20:10;;;;;;;17.10;13.95;;;3.50;90.70;;;;;;5044627;28;20013;-76
2022/03/21 01:22:36;;;;;;;14.98;12.98;;;3.50;90.80;;;;;;5038668;28;20025;-75
2022/03/21 01:25:02;;;;;;;15.15;13.30;;;3.50;90.40;;;;;;5037924;28;20044;-76
2022/03/21 01:27:29;;;;;;;15.07;13.18;;;3.70;90.10;;;;;;5045312;28;20053;-75
2022/03/21 01:29:55;;;;;;;14.77;13.10;;;3.40;91.50;;;;;;5044885;28;20445;-75
2022/03/21 01:32:20;;;;;;;16.15;13.30;;;3.50;91.40;;;;;;5038494;28;20029;-75
2022/03/21 01:34:46;;;;;;;15.15;13.63;;;3.40;91.10;;;;;;5050484;28;20677;-75
2022/03/21 01:37:11;;;;;;;17.55;14.18;;;3.30;91.80;;;;;;5036780;28;20076;-76
2022/03/21 01:39:37;;;;;;;15.50;13.63;;;3.10;92.00;;;;;;5037578;28;20458;-76
2022/03/21 01:42:03;;;;;;;14.75;13.02;;;3.40;91.40;;;;;;5043848;28;20036;-74
2022/03/21 01:44:29;;;;;;;18.27;14.40;;;3.30;91.90;;;;;;5043048;28;20039;-72
2022/03/21 01:46:55;;;;;;;15.40;13.80;;;3.10;92.70;;;;;;5038258;28;20039;-73
2022/03/21 01:49:21;;;;;;;16.63;13.48;;;3.10;92.80;;;;;;5038940;28;20108;-73
2022/03/21 01:51:46;;;;;;;15.60;13.43;;;3.10;92.10;;;;;;5030187;28;20033;-73
2022/03/21 01:56:58;;;;;;;12.98;11.57;;;3.50;91.30;;;;;;5029536;28;20040;-72
2022/03/21 01:59:25;;;;;;;14.75;13.25;;;3.70;90.30;;;;;;5049315;28;20025;-74
2022/03/21 02:01:50;;;;;;;14.25;12.63;;;3.70;90.20;;;;;;5040462;28;20025;-74
2022/03/21 02:04:16;;;;;;;13.93;12.40;;;3.80;89.40;;;;;;5035547;28;20533;-74
2022/03/21 02:06:43;;;;;;;14.00;12.52;;;3.90;88.50;;;;;;5030238;28;20028;-74
2022/03/21 02:09:09;;;;;;;16.33;13.43;;;3.80;88.90;;;;;;5030220;28;20029;-74
2022/03/21 02:11:35;;;;;;;14.32;11.93;;;3.90;89.10;;;;;;5031189;28;20387;-74
2022/03/21 02:14:02;;;;;;;14.55;12.15;;;3.90;88.90;;;;;;5047267;28;20025;-75
2022/03/21 02:16:31;;;;;;;14.10;12.55;;;3.80;89.00;;;;;;5041377;28;20014;-75
2022/03/21 02:19:04;;;;;;;15.10;12.55;;;3.80;89.10;;;;;;5044634;28;20021;-74
2022/03/21 02:21:37;;;;;;;15.45;12.40;;;4.00;88.60;;;;;;5040082;28;20143;-73
2022/03/21 02:24:09;;;;;;;17.38;13.05;;;3.70;89.00;;;;;;5045467;28;20115;-73
2022/03/21 02:26:36;;;;;;;15.18;12.50;;;3.80;88.50;;;;;;5031658;28;20391;-73
2022/03/21 02:29:03;;;;;;;14.00;12.50;;;3.80;88.50;;;;;;5035627;28;20032;-73
2022/03/21 02:31:32;;;;;;;14.55;12.68;;;3.70;88.70;;;;;;5038688;28;20033;-75
2022/03/21 02:33:59;;;;;;;14.02;12.13;;;3.70;88.90;;;;;;5043118;28;20402;-75
2022/03/21 02:36:26;;;;;;;14.82;12.45;;;3.70;89.00;;;;;;5042739;28;20426;-75
2022/03/21 02:38:53;;;;;;;14.35;12.85;;;3.60;89.30;;;;;;5037725;28;20044;-75
2022/03/21 02:41:19;;;;;;;14.38;12.15;;;3.70;89.80;;;;;;5037855;28;20372;-75
2022/03/21 02:43:54;;;;;;;14.23;12.63;;;3.60;89.30;;;;;;5043157;28;20079;-74
2022/03/21 02:46:21;;;;;;;14.70;12.57;;;3.60;89.40;;;;;;5031058;28;20033;-75
2022/03/21 02:48:47;;;;;;;14.15;11.93;;;3.70;89.30;;;;;;5041122;28;20052;-75
2022/03/21 02:51:14;;;;;;;13.95;12.45;;;3.50;89.60;;;;;;5040886;28;20112;-75
2022/03/21 02:53:41;;;;;;;14.57;12.23;;;3.50;89.70;;;;;;5045498;28;20018;-75
2022/03/21 02:56:07;;;;;;;13.98;12.48;;;3.50;89.60;;;;;;5033307;28;20376;-75
2022/03/21 02:58:32;;;;;;;15.50;12.57;;;3.50;89.50;;;;;;5033310;28;20120;-75
2022/03/21 03:01:16;;;;;;;14.43;12.93;;;3.50;89.90;;;;;;5047597;28;20112;-74
2022/03/21 03:03:42;;;;;;;14.98;12.73;;;3.40;89.60;;;;;;5043429;28;20540;-74
2022/03/21 03:06:08;;;;;;;13.75;11.98;;;3.40;89.80;;;;;;5041033;28;20043;-77
2022/03/21 03:08:35;;;;;;;13.90;12.30;;;3.40;89.80;;;;;;5044882;28;20064;-75
2022/03/21 03:11:01;;;;;;;15.60;12.70;;;3.30;90.00;;;;;;5046315;28;20026;-77
2022/03/21 03:13:26;;;;;;;15.15;13.00;;;3.30;90.10;;;;;;5044788;28;20028;-76
2022/03/21 03:15:52;;;;;;;20.98;12.65;;;3.30;90.10;;;;;;5041300;28;20057;-76
2022/03/21 03:18:18;;;;;;;14.23;12.75;;;3.30;90.10;;;;;;5042706;28;20032;-76
2022/03/21 03:20:52;;;;;;;14.52;12.35;;;3.20;90.10;;;;;;5046548;28;20029;-77
2022/03/21 03:23:20;;;;;;;14.20;12.63;;;3.20;90.10;;;;;;5037156;28;20028;-76
2022/03/21 03:25:46;;;;;;;15.23;12.55;;;3.20;90.20;;;;;;5040276;28;20033;-77
2022/03/21 03:28:13;;;;;;;14.38;12.38;;;3.20;90.20;;;;;;5042395;28;20344;-76
2022/03/21 03:30:40;;;;;;;13.75;12.30;;;3.10;90.40;;;;;;5052814;28;20111;-77
2022/03/21 03:33:06;;;;;;;16.50;13.38;;;3.10;90.40;;;;;;5042846;28;20528;-77
2022/03/21 03:35:32;;;;;;;15.50;13.38;;;3.00;91.10;;;;;;5039148;28;20032;-76
2022/03/21 03:37:57;;;;;;;15.68;14.07;;;2.80;91.10;;;;;;5043192;28;20415;-77
2022/03/21 03:40:23;;;;;;;15.57;13.95;;;2.30;93.00;;;;;;5046754;28;20124;-75
2022/03/21 03:42:48;;;;;;;16.77;14.60;;;2.10;93.20;;;;;;5045561;28;20033;-76
2022/03/21 03:45:14;;;;;;;16.85;14.73;;;2.20;93.70;;;;;;5039195;28;20028;-76
2022/03/21 03:47:41;;;;;;;17.67;14.10;;;2.20;93.80;;;;;;5040696;28;20068;-75
2022/03/21 03:50:08;;;;;;;15.30;13.70;;;2.00;94.40;;;;;;5046990;28;20033;-75
2022/03/21 03:52:33;;;;;;;15.10;13.48;;;2.00;94.70;;;;;;5045072;28;20025;-75
2022/03/21 03:54:59;;;;;;;14.80;13.23;;;2.00;94.70;;;;;;5038810;28;20028;-76
2022/03/21 03:57:25;;;;;;;16.88;13.48;;;1.90;95.30;;;;;;5040825;28;20057;-77
2022/03/21 03:59:50;;;;;;;14.90;13.20;;;2.00;95.10;;;;;;5045574;28;20120;-76
2022/03/21 04:02:16;;;;;;;15.48;13.10;;;1.90;95.40;;;;;;5044664;28;20397;-75
2022/03/21 04:04:42;;;;;;;15.35;13.27;;;1.80;96.00;;;;;;5039922;28;20146;-75
2022/03/21 04:07:08;;;;;;;15.57;12.50;;;1.80;96.30;;;;;;5042141;28;20075;-75
2022/03/21 04:09:33;;;;;;;14.02;12.57;;;1.80;95.90;;;;;;5046553;28;20037;-74
2022/03/21 04:11:59;;;;;;;14.77;13.07;;;1.90;95.90;;;;;;5042892;28;20111;-75
2022/03/21 04:14:25;;;;;;;13.80;12.40;;;1.90;96.30;;;;;;5030171;28;20022;-75
2022/03/21 04:16:51;;;;;;;14.25;12.75;;;1.80;95.90;;;;;;5025183;28;20105;-75
2022/03/21 04:19:16;;;;;;;16.88;13.52;;;1.90;96.20;;;;;;5046322;28;20602;-75
2022/03/21 04:21:42;;;;;;;15.80;13.50;;;1.90;96.00;;;;;;5044585;28;20483;-75
2022/03/21 04:24:07;;;;;;;18.95;16.95;;;2.00;95.50;;;;;;5039550;28;20040;-75
2022/03/21 04:26:33;;;;;;;30.52;25.30;;;2.10;95.20;;;;;;5040150;28;20025;-76
2022/03/21 04:28:59;;;;;;;24.63;20.40;;;2.00;95.70;;;;;;5046447;28;20109;-77
2022/03/21 04:31:25;;;;;;;94.63;60.03;;;2.00;95.60;;;;;;5042415;28;20021;-76
2022/03/21 04:33:50;;;;;;;79.93;55.45;;;1.90;96.00;;;;;;5038288;28;20029;-77
2022/03/21 04:36:16;;;;;;;62.80;44.83;;;1.90;95.70;;;;;;5040419;28;20044;-77
2022/03/21 04:38:41;;;;;;;101.57;66.60;;;2.00;96.00;;;;;;5045125;28;20025;-76
2022/03/21 04:41:07;;;;;;;52.40;40.13;;;1.90;96.20;;;;;;5043271;28;20434;-76
2022/03/21 04:43:33;;;;;;;29.13;23.23;;;1.90;96.40;;;;;;5039151;28;20064;-75
2022/03/21 04:45:59;;;;;;;17.13;15.32;;;1.80;97.10;;;;;;5041659;28;20025;-74
2022/03/21 04:48:25;;;;;;;17.10;15.13;;;1.60;97.60;;;;;;5044670;28;20080;-74
2022/03/21 04:50:51;;;;;;;14.57;13.07;;;1.50;98.20;;;;;;5043288;28;20489;-75
2022/03/21 04:53:17;;;;;;;15.20;13.43;;;1.50;98.40;;;;;;5037681;28;20032;-74
2022/03/21 04:55:43;;;;;;;15.50;13.60;;;1.40;98.90;;;;;;5041190;28;20036;-75
2022/03/21 04:58:09;;;;;;;15.05;13.45;;;1.40;98.90;;;;;;5045866;28;20478;-75
2022/03/21 05:00:37;;;;;;;20.02;16.27;;;1.40;98.00;;;;;;5041673;28;20036;-76
2022/03/21 05:03:07;;;;;;;18.15;15.07;;;1.20;98.90;;;;;;5038606;28;20025;-74
2022/03/21 05:05:35;;;;;;;20.38;16.48;;;1.10;99.10;;;;;;5052397;28;20021;-76
2022/03/21 05:08:02;;;;;;;18.58;15.38;;;1.10;98.90;;;;;;5038640;28;20091;-75
2022/03/21 05:10:28;;;;;;;21.00;18.80;;;0.90;99.10;;;;;;5051533;28;20497;-76
2022/03/21 05:12:54;;;;;;;18.83;14.18;;;1.00;99.30;;;;;;5033555;28;20033;-75
2022/03/21 05:15:19;;;;;;;18.30;15.82;;;0.90;99.30;;;;;;5030860;28;20026;-75
2022/03/21 05:17:46;;;;;;;18.67;16.75;;;0.70;99.50;;;;;;5044257;28;20067;-76
2022/03/21 05:20:15;;;;;;;17.20;14.50;;;0.60;99.90;;;;;;5044272;28;20028;-77
2022/03/21 05:22:41;;;;;;;15.02;13.50;;;0.60;99.90;;;;;;5038506;28;20017;-76
2022/03/21 05:36:03;;;;;;;17.55;14.82;;;0.60;99.90;;;;;;5042322;28;20426;-74
2022/03/21 05:38:30;;;;;;;16.60;14.80;;;0.70;99.90;;;;;;5045246;28;20104;-75
2022/03/21 05:41:00;;;;;;;16.38;14.68;;;0.80;99.90;;;;;;5039527;28;20036;-75
2022/03/21 05:43:29;;;;;;;16.92;14.13;;;0.70;99.90;;;;;;5038385;28;20383;-74
2022/03/21 05:45:55;;;;;;;17.50;14.57;;;0.50;99.90;;;;;;5040407;28;20113;-74
2022/03/21 05:51:06;;;;;;;19.60;15.27;;;0.60;99.90;;;;;;5045350;28;20032;-75
2022/03/21 05:53:32;;;;;;;19.45;14.88;;;0.70;99.90;;;;;;5030812;28;20040;-76
2022/03/21 05:56:00;;;;;;;16.10;14.43;;;0.80;99.90;;;;;;5044292;28;20534;-75
2022/03/21 05:58:26;;;;;;;17.77;15.13;;;0.70;99.90;;;;;;5037308;28;20387;-74
2022/03/21 06:00:51;;;;;;;19.75;15.60;;;0.80;99.90;;;;;;5050210;28;20032;-74
2022/03/21 06:03:17;;;;;;;16.23;14.48;;;0.80;99.90;;;;;;5038215;28;20402;-74
2022/03/21 06:05:44;;;;;;;18.17;15.02;;;0.80;99.90;;;;;;5050125;28;20039;-75
2022/03/21 06:08:09;;;;;;;18.13;14.98;;;0.90;99.90;;;;;;5038151;28;20478;-75
2022/03/21 06:10:36;;;;;;;17.95;14.45;;;1.10;99.90;;;;;;5036774;28;20033;-76
2022/03/21 06:13:05;;;;;;;17.70;15.77;;;1.20;99.90;;;;;;5018204;28;20502;-75
2022/03/21 06:15:32;;;;;;;19.17;17.15;;;1.20;99.90;;;;;;5031413;28;20045;-75
2022/03/21 06:17:59;;;;;;;21.08;17.13;;;1.30;99.90;;;;;;5039516;28;20418;-75
2022/03/21 06:20:26;;;;;;;20.55;16.25;;;1.40;99.90;;;;;;5037558;28;20109;-75
2022/03/21 06:22:52;;;;;;;18.40;16.45;;;1.60;99.90;;;;;;5043809;28;20471;-75
2022/03/21 06:25:17;;;;;;;21.17;16.05;;;1.60;99.90;;;;;;5050020;28;20041;-75
2022/03/21 06:27:43;;;;;;;18.63;16.20;;;1.60;99.90;;;;;;5045785;28;20423;-74
2022/03/21 06:30:10;;;;;;;16.98;15.23;;;1.70;99.90;;;;;;5035136;28;20048;-74
2022/03/21 06:32:36;;;;;;;19.17;15.65;;;1.80;99.90;;;;;;5033731;28;20025;-75
2022/03/21 06:35:04;;;;;;;18.38;15.45;;;1.90;99.90;;;;;;5035233;28;20492;-75
2022/03/21 06:37:33;;;;;;;33.47;23.45;;;2.00;99.90;;;;;;5041602;28;20021;-75
2022/03/21 06:39:58;;;;;;;21.25;16.75;;;2.10;99.90;;;;;;5041107;28;20127;-74
2022/03/21 06:42:24;;;;;;;16.15;14.45;;;2.20;99.90;;;;;;5046307;28;20061;-75
2022/03/21 06:44:50;;;;;;;17.58;13.60;;;2.30;99.90;;;;;;5033633;28;20041;-76
2022/03/21 06:47:19;;;;;;;15.07;13.13;;;2.30;99.90;;;;;;5041751;28;20032;-75
2022/03/21 06:49:45;;;;;;;16.05;13.18;;;2.30;99.90;;;;;;5054713;28;20017;-74
2022/03/21 06:52:12;;;;;;;15.90;13.70;;;2.40;99.70;;;;;;5053181;28;20036;-75
2022/03/21 06:54:38;;;;;;;16.35;13.70;;;2.50;99.90;;;;;;5052848;28;20029;-75
2022/03/21 06:57:05;;;;;;;16.58;13.80;;;2.50;99.90;;;;;;5041744;28;20551;-75
2022/03/21 06:59:31;;;;;;;15.80;13.48;;;2.40;99.70;;;;;;5039200;28;20471;-74
2022/03/21 07:01:57;;;;;;;17.27;13.63;;;2.50;99.90;;;;;;5033184;28;20030;-74
2022/03/21 07:04:23;;;;;;;15.40;12.88;;;2.50;99.70;;;;;;5035198;28;20036;-75
2022/03/21 07:06:50;;;;;;;16.30;13.50;;;2.70;99.90;;;;;;5045508;28;20426;-75
2022/03/21 07:09:16;;;;;;;15.57;13.85;;;2.70;99.80;;;;;;5036705;28;20637;-75
2022/03/21 07:11:41;;;;;;;15.18;13.57;;;2.80;99.90;;;;;;5043696;28;20039;-73
2022/03/21 07:14:07;;;;;;;16.42;12.80;;;3.00;99.90;;;;;;5049896;28;20395;-71
2022/03/21 07:16:32;;;;;;;15.38;13.32;;;3.10;99.70;;;;;;5044598;28;20364;-73
2022/03/21 07:18:58;;;;;;;17.30;14.48;;;3.20;99.20;;;;;;5047782;28;20028;-71
2022/03/21 07:21:24;;;;;;;19.25;15.77;;;3.20;99.90;;;;;;5038220;28;20041;-73
2022/03/21 07:23:49;;;;;;;18.25;12.77;;;3.20;99.20;;;;;;5032440;28;20025;-76
2022/03/21 07:26:15;;;;;;;14.77;12.98;;;3.30;98.00;;;;;;5032866;28;20026;-75
2022/03/21 07:28:40;;;;;;;15.23;12.93;;;3.40;97.40;;;;;;5048154;28;20024;-75
2022/03/21 07:31:10;;;;;;;14.43;12.93;;;3.40;97.60;;;;;;5045101;28;20029;-75
2022/03/21 07:33:40;;;;;;;15.10;12.95;;;3.60;96.90;;;;;;5049591;28;20017;-76
2022/03/21 07:36:07;;;;;;;15.35;13.25;;;3.60;96.60;;;;;;5044176;28;20033;-76
2022/03/21 07:38:34;;;;;;;14.77;12.60;;;3.70;96.90;;;;;;5047404;28;20422;-75
2022/03/21 07:41:00;;;;;;;15.18;12.50;;;3.80;96.90;;;;;;5043340;28;20029;-75
2022/03/21 07:43:25;;;;;;;14.93;13.30;;;4.00;96.70;;;;;;5040190;28;20029;-75
2022/03/21 07:48:35;;;;;;;13.48;12.07;;;3.90;96.20;;;;;;5047070;28;20095;-75
2022/03/21 07:51:03;;;;;;;13.75;11.90;;;4.10;97.30;;;;;;5043946;28;20123;-75
2022/03/21 07:53:28;;;;;;;14.18;12.23;;;4.20;96.50;;;;;;5040069;28;20024;-74
2022/03/21 07:55:54;;;;;;;15.43;12.27;;;4.20;96.60;;;;;;5041893;28;20025;-75
2022/03/21 07:58:19;;;;;;;14.10;12.65;;;4.40;96.30;;;;;;5046269;28;20730;-75
2022/03/21 08:00:45;;;;;;;13.95;12.13;;;4.50;96.20;;;;;;5033289;28;20033;-76
2022/03/21 08:03:14;;;;;;;15.05;11.70;;;4.60;96.50;;;;;;5045793;28;20387;-74
2022/03/21 08:05:40;;;;;;;12.63;11.32;;;4.80;95.00;;;;;;5033125;28;20029;-75
2022/03/21 08:08:06;;;;;;;12.68;11.38;;;5.00;94.80;;;;;;5033626;28;20029;-74
2022/03/21 08:10:33;;;;;;;13.18;10.93;;;5.00;94.20;;;;;;5044102;28;20556;-76
2022/03/21 08:12:58;;;;;;;15.15;11.73;;;5.10;94.30;;;;;;5053309;28;20094;-76
2022/03/21 08:15:26;;;;;;;13.25;11.32;;;5.30;94.80;;;;;;5049690;28;20025;-75
2022/03/21 08:17:51;;;;;;;13.38;11.77;;;5.40;93.60;;;;;;5035136;28;20017;-75
2022/03/21 08:20:21;;;;;;;13.60;12.15;;;5.40;92.90;;;;;;5039384;28;20031;-75
2022/03/21 08:22:47;;;;;;;12.68;11.38;;;5.40;94.30;;;;;;5027442;28;20100;-74
2022/03/21 08:25:15;;;;;;;12.95;10.70;;;5.40;92.30;;;;;;5031947;28;20025;-75
2022/03/21 08:27:43;;;;;;;12.35;11.02;;;5.40;93.00;;;;;;5044020;28;20553;-74
2022/03/21 08:30:10;;;;;;;13.75;10.88;;;5.60;93.00;;;;;;5046198;28;20033;-74
2022/03/21 08:32:36;;;;;;;14.40;11.10;;;5.60;92.60;;;;;;5040516;28;20054;-74
2022/03/21 08:35:01;;;;;;;12.77;11.15;;;5.70;93.00;;;;;;5039513;28;20100;-75
2022/03/21 08:37:27;;;;;;;15.23;11.38;;;5.80;92.80;;;;;;5044895;28;20394;-76
2022/03/21 08:39:52;;;;;;;11.82;10.63;;;5.90;92.30;;;;;;5045804;28;20037;-75
2022/03/21 08:42:18;;;;;;;13.27;10.68;;;6.00;92.50;;;;;;5040009;28;20029;-75
2022/03/21 08:44:43;;;;;;;14.73;11.80;;;6.10;92.00;;;;;;5037900;28;20079;-75
2022/03/21 08:47:09;;;;;;;13.30;11.93;;;6.20;92.00;;;;;;5043015;28;20112;-75
2022/03/21 08:49:37;;;;;;;12.18;10.88;;;6.20;91.30;;;;;;5046691;28;20032;-75
2022/03/21 08:52:03;;;;;;;14.45;11.13;;;6.30;92.10;;;;;;5044531;28;20026;-75
2022/03/21 08:54:29;;;;;;;13.23;10.68;;;6.50;91.70;;;;;;5044440;28;20021;-75
2022/03/21 08:56:55;;;;;;;14.27;12.15;;;6.60;91.90;;;;;;5040139;28;20021;-76
2022/03/21 08:59:20;;;;;;;13.73;11.00;;;6.60;91.40;;;;;;5049955;28;20044;-76
2022/03/21 09:01:46;;;;;;;12.52;11.23;;;6.50;90.50;;;;;;5039995;28;20662;-75
2022/03/21 09:04:12;;;;;;;14.35;10.85;;;6.60;91.30;;;;;;5038565;28;20030;-75
2022/03/21 09:06:38;;;;;;;13.68;11.30;;;6.80;91.30;;;;;;5043020;28;20116;-74
2022/03/21 09:09:04;;;;;;;11.63;10.40;;;6.90;90.70;;;;;;5030762;28;20499;-75
2022/03/21 09:11:30;;;;;;;12.85;11.10;;;6.80;90.00;;;;;;5036354;28;20502;-75
2022/03/21 09:13:56;;;;;;;13.88;10.88;;;6.80;90.10;;;;;;5045214;28;20099;-75
2022/03/21 09:16:21;;;;;;;13.70;11.02;;;7.10;91.20;;;;;;5030983;28;20151;-75
2022/03/21 09:18:47;;;;;;;14.07;11.55;;;7.10;91.40;;;;;;5038824;28;20049;-74
2022/03/21 09:21:13;;;;;;;14.45;11.63;;;7.10;91.20;;;;;;5039749;28;20033;-75
2022/03/21 09:23:39;;;;;;;13.98;10.57;;;7.30;90.70;;;;;;5036137;28;20025;-75
2022/03/21 09:26:11;;;;;;;15.18;11.18;;;7.30;90.60;;;;;;5038572;28;20035;-75
2022/03/21 09:28:37;;;;;;;15.10;11.15;;;7.40;90.70;;;;;;5036668;28;20104;-74
2022/03/21 09:31:06;;;;;;;13.73;11.55;;;7.50;90.10;;;;;;5040220;28;20074;-75
2022/03/21 09:33:32;;;;;;;12.70;10.75;;;7.40;89.10;;;;;;5051721;28;20028;-75
2022/03/21 09:35:57;;;;;;;13.40;10.32;;;7.50;89.80;;;;;;5041614;28;20029;-76
2022/03/21 09:38:23;;;;;;;13.93;11.27;;;7.50;90.00;;;;;;5045029;28;20025;-75
2022/03/21 09:40:49;;;;;;;12.52;10.90;;;7.70;90.20;;;;;;5039185;28;20514;-76
2022/03/21 09:43:14;;;;;;;12.77;10.45;;;7.90;90.30;;;;;;5037298;28;20087;-75
2022/03/21 09:45:40;;;;;;;12.85;10.98;;;7.70;87.80;;;;;;5042695;28;20030;-75
2022/03/21 09:48:12;;;;;;;13.52;10.70;;;7.60;88.80;;;;;;5032355;28;20021;-75
2022/03/21 09:50:40;;;;;;;12.48;10.57;;;7.70;89.20;;;;;;5041324;28;20029;-76
2022/03/21 09:53:07;;;;;;;12.18;10.27;;;8.20;90.20;;;;;;5035133;28;20018;-75
2022/03/21 09:55:33;;;;;;;12.73;10.18;;;8.30;89.30;;;;;;5031703;28;20018;-75
2022/03/21 09:57:58;;;;;;;13.18;11.13;;;8.30;87.50;;;;;;5047885;28;20025;-75
2022/03/21 10:00:27;;;;;;;12.52;10.68;;;8.30;88.80;;;;;;5045264;28;20031;-75
2022/03/21 10:02:53;;;;;;;14.00;11.02;;;8.30;88.10;;;;;;5039055;28;20026;-75
2022/03/21 10:05:41;;;;;;;14.05;10.93;;;8.30;85.90;;;;;;5035896;28;20036;-74
2022/03/21 10:08:18;;;;;;;11.90;10.60;;;8.40;87.20;;;;;;5048940;28;20441;-75
2022/03/21 10:10:54;;;;;;;13.13;10.38;;;8.50;86.00;;;;;;5035395;28;20487;-75
2022/03/21 10:13:21;;;;;;;14.35;10.70;;;8.70;87.40;;;;;;5043130;28;20025;-75
2022/03/21 10:15:48;;;;;;;12.60;10.20;;;9.00;87.40;;;;;;5050664;28;20021;-76
2022/03/21 10:18:15;;;;;;;12.45;10.18;;;9.00;85.90;;;;;;5035472;28;20491;-76
2022/03/21 10:20:41;;;;;;;13.20;10.13;;;8.80;83.40;;;;;;5038511;28;20372;-76
2022/03/21 10:23:18;;;;;;;11.57;10.13;;;8.80;84.10;;;;;;5045087;28;20029;-76
2022/03/21 10:25:44;;;;;;;16.25;10.70;;;8.90;84.30;;;;;;5053341;28;20487;-76
2022/03/21 10:28:10;;;;;;;13.85;10.43;;;9.10;84.50;;;;;;5043759;28;20036;-76
2022/03/21 10:30:44;;;;;;;12.77;10.30;;;9.60;85.10;;;;;;5046867;28;20021;-75
2022/03/21 10:33:10;;;;;;;12.98;10.38;;;9.60;84.40;;;;;;5046464;28;20368;-75
2022/03/21 10:35:44;;;;;;;13.88;10.85;;;9.30;83.70;;;;;;5034327;28;20037;-74
2022/03/21 10:38:10;;;;;;;12.95;10.00;;;9.40;84.70;;;;;;5034987;28;20049;-74
2022/03/21 10:40:47;;;;;;;12.65;9.88;;;9.60;87.50;;;;;;5033413;28;20203;-74
2022/03/21 10:43:18;;;;;;;12.52;10.10;;;9.60;86.10;;;;;;5047021;28;20491;-74
2022/03/21 10:45:52;;;;;;;13.80;10.63;;;9.80;83.80;;;;;;5043961;28;20059;-74
2022/03/21 10:48:31;;;;;;;13.88;11.10;;;10.10;84.00;;;;;;5043536;28;20040;-74
2022/03/21 10:50:59;;;;;;;11.10;9.68;;;10.20;83.90;;;;;;5042617;28;20037;-74
2022/03/21 10:53:39;;;;;;;11.30;9.50;;;10.40;84.80;;;;;;5046817;28;20487;-75
2022/03/21 10:56:08;;;;;;;12.15;9.75;;;10.20;85.20;;;;;;5046771;28;20039;-76
2022/03/21 10:58:41;;;;;;;11.80;9.57;;;10.50;83.50;;;;;;5041026;28;20049;-75
2022/03/21 11:01:17;;;;;;;10.98;9.70;;;10.60;82.30;;;;;;5045427;28;20022;-75
2022/03/21 11:03:44;;;;;;;12.85;10.63;;;10.70;81.30;;;;;;5044416;28;20494;-75
2022/03/21 11:06:12;;;;;;;13.07;10.20;;;10.60;82.00;;;;;;5051509;28;20533;-76
2022/03/21 11:08:38;;;;;;;13.27;10.05;;;10.40;79.10;;;;;;5043891;28;20100;-76
2022/03/21 11:11:05;;;;;;;13.43;10.45;;;10.30;80.80;;;;;;5052459;28;20056;-75
2022/03/21 11:13:32;;;;;;;12.85;10.05;;;10.50;80.90;;;;;;5039213;28;20032;-75
2022/03/21 11:15:58;;;;;;;15.52;10.57;;;10.70;81.60;;;;;;5038614;28;20444;-75
2022/03/21 11:18:28;;;;;;;12.07;10.10;;;11.00;84.40;;;;;;5047502;28;20028;-76
2022/03/21 11:20:55;;;;;;;12.80;9.55;;;11.00;81.50;;;;;;5045780;28;20083;-76
2022/03/21 11:23:21;;;;;;;12.85;10.52;;;10.90;79.50;;;;;;5054217;28;20091;-76
2022/03/21 11:25:56;;;;;;;14.48;10.95;;;10.70;78.10;;;;;;5052589;28;20027;-76
2022/03/21 11:28:55;;;;;;;13.57;10.03;;;11.00;81.70;;;;;;5025788;28;20550;-75
2022/03/21 11:31:48;;;;;;;13.07;9.88;;;11.40;85.10;;;;;;5036654;28;20047;-76
2022/03/21 11:34:42;;;;;;;12.55;10.05;;;11.00;77.40;;;;;;5023126;28;20455;-75
2022/03/21 11:37:24;;;;;;;12.45;10.15;;;10.80;79.00;;;;;;5039165;28;20048;-76
2022/03/21 11:39:50;;;;;;;11.80;10.15;;;11.50;83.30;;;;;;5032981;28;20029;-75
2022/03/21 11:42:23;;;;;;;13.63;10.25;;;11.80;80.90;;;;;;5049001;28;20036;-76
2022/03/21 11:45:24;;;;;;;11.02;9.57;;;11.70;79.00;;;;;;5052359;28;20029;-76
2022/03/21 11:48:10;;;;;;;11.27;10.07;;;11.30;77.50;;;;;;5044789;28;20040;-75
2022/03/21 11:50:36;;;;;;;13.35;10.65;;;11.50;77.40;;;;;;5025594;28;20052;-75
2022/03/21 11:53:12;;;;;;;16.40;10.85;;;11.40;78.40;;;;;;5038267;28;20049;-76
2022/03/21 11:55:38;;;;;;;;;;;11.50;77.70;;;;;;5039376;28;20674;-76
2022/03/21 11:58:22;;;;;;;12.35;10.20;;;11.60;76.40;;;;;;5034525;28;20008;-76
2022/03/21 12:01:07;;;;;;;17.95;11.35;;;12.00;76.50;;;;;;5038244;28;20269;-76
2022/03/21 12:03:34;;;;;;;12.57;9.90;;;12.40;75.80;;;;;;5041391;28;20028;-76
2022/03/21 12:06:23;;;;;;;11.93;9.88;;;13.10;74.70;;;;;;5043953;28;20037;-76
2022/03/21 12:09:12;;;;;;;12.70;9.43;;;13.80;74.70;;;;;;5046958;28;20426;-76
2022/03/21 12:11:37;;;;;;;12.02;10.07;;;14.30;71.80;;;;;;5046783;28;20449;-76
2022/03/21 12:14:25;;;;;;;12.68;9.90;;;14.80;71.30;;;;;;5038450;28;20105;-76
2022/03/21 12:17:02;;;;;;;13.20;9.90;;;15.10;69.60;;;;;;5040946;28;20021;-77
2022/03/21 12:19:47;;;;;;;10.10;9.02;;;15.70;68.60;;;;;;5038469;28;20594;-77
2022/03/21 12:22:34;;;;;;;10.43;8.52;;;15.90;63.80;;;;;;5044202;28;20021;-74
2022/03/21 12:25:13;;;;;;;12.43;9.73;;;15.70;67.00;;;;;;5043870;28;20028;-78
2022/03/21 12:27:45;;;;;;;10.20;8.95;;;15.40;67.90;;;;;;5037788;28;20029;-79
2022/03/21 12:30:19;;;;;;;9.82;8.50;;;16.20;65.00;;;;;;5036737;28;20387;-79
2022/03/21 12:32:52;;;;;;;11.57;8.82;;;16.00;64.30;;;;;;5045199;28;20036;-77
2022/03/21 12:35:34;;;;;;;15.82;9.15;;;16.60;63.20;;;;;;5042589;28;20021;-79
2022/03/21 12:38:00;;;;;;;9.52;7.90;;;17.40;62.00;;;;;;5041485;28;20538;-77
2022/03/21 12:40:25;;;;;;;9.68;8.23;;;17.10;60.70;;;;;;5045835;28;20033;-76
2022/03/21 12:42:51;;;;;;;9.30;8.27;;;17.00;59.00;;;;;;5032616;28;20502;-77
2022/03/21 12:45:19;;;;;;;9.15;7.97;;;17.50;58.10;;;;;;5037575;28;20024;-76
2022/03/21 12:47:44;;;;;;;11.23;7.90;;;17.80;60.20;;;;;;5038995;28;20672;-76
2022/03/21 12:50:21;;;;;;;12.18;8.27;;;18.60;57.80;;;;;;5045644;28;20029;-77
2022/03/21 12:53:08;;;;;;;9.30;8.38;;;17.90;58.40;;;;;;5045787;28;20479;-77
2022/03/21 12:55:34;;;;;;;9.65;8.63;;;18.50;57.20;;;;;;5042676;28;20052;-77
2022/03/21 12:58:04;;;;;;;9.45;8.20;;;17.70;58.50;;;;;;5035308;28;20026;-76
2022/03/21 13:00:34;;;;;;;10.68;8.38;;;17.60;59.50;;;;;;5043118;28;20029;-77